sensor_id;sensor_type;location;lat;lon;timestamp;temperature;humidity
64951;DHT22;51482;47.014;7.652;2023-08-06T00:00:24;16.50;99.90
64951;DHT22;51482;47.014;7.652;2023-08-06T00:02:50;16.40;99.90
64951;DHT22;51482;47.014;7.652;2023-08-06T00:05:16;16.40;99.90
64951;DHT22;51482;47.014;7.652;2023-08-06T00:07:50;16.40;99.90
64951;DHT22;51482;47.014;7.652;2023-08-06T00:10:16;16.40;99.90
64951;DHT22;51482;47.014;7.652;2023-08-06T00:12:43;16.20;99.90
64951;DHT22;51482;47.014;7.652;2023-08-06T00:15:09;16.30;99.90
64951;DHT22;51482;47.014;7.652;2023-08-06T00:17:35;16.30;99.90
64951;DHT22;51482;47.014;7.652;2023-08-06T00:20:01;16.30;99.90
64951;DHT22;51482;47.014;7.652;2023-08-06T00:22:32;16.30;99.90
64951;DHT22;51482;47.014;7.652;2023-08-06T00:24:58;16.30;99.90
64951;DHT22;51482;47.014;7.652;2023-08-06T00:27:23;16.30;99.90
64951;DHT22;51482;47.014;7.652;2023-08-06T00:29:49;16.30;99.90
64951;DHT22;51482;47.014;7.652;2023-08-06T00:32:15;16.30;99.90
64951;DHT22;51482;47.014;7.652;2023-08-06T00:34:40;16.30;99.90
64951;DHT22;51482;47.014;7.652;2023-08-06T00:37:06;16.30;99.90
64951;DHT22;51482;47.014;7.652;2023-08-06T00:39:31;16.30;99.90
64951;DHT22;51482;47.014;7.652;2023-08-06T00:41:57;16.20;99.90
64951;DHT22;51482;47.014;7.652;2023-08-06T00:44:23;16.30;99.90
64951;DHT22;51482;47.014;7.652;2023-08-06T00:46:49;16.20;99.90
64951;DHT22;51482;47.014;7.652;2023-08-06T00:49:15;16.20;99.90
64951;DHT22;51482;47.014;7.652;2023-08-06T00:51:40;16.30;99.90
64951;DHT22;51482;47.014;7.652;2023-08-06T00:54:07;16.30;99.90
64951;DHT22;51482;47.014;7.652;2023-08-06T00:56:34;16.20;99.90
64951;DHT22;51482;47.014;7.652;2023-08-06T00:59:01;16.20;99.90
64951;DHT22;51482;47.014;7.652;2023-08-06T01:01:26;16.20;99.90
64951;DHT22;51482;47.014;7.652;2023-08-06T01:03:53;16.30;99.90
64951;DHT22;51482;47.014;7.652;2023-08-06T01:06:30;16.20;99.90
64951;DHT22;51482;47.014;7.652;2023-08-06T01:09:03;16.20;99.90
64951;DHT22;51482;47.014;7.652;2023-08-06T01:11:48;16.30;99.90
64951;DHT22;51482;47.014;7.652;2023-08-06T01:14:37;16.30;99.90
64951;DHT22;51482;47.014;7.652;2023-08-06T01:17:07;16.30;99.90
64951;DHT22;51482;47.014;7.652;2023-08-06T01:19:33;16.60;99.90
64951;DHT22;51482;47.014;7.652;2023-08-06T01:21:58;16.30;99.90
64951;DHT22;51482;47.014;7.652;2023-08-06T01:24:24;16.20;99.90
64951;DHT22;51482;47.014;7.652;2023-08-06T01:27:11;16.20;99.90
64951;DHT22;51482;47.014;7.652;2023-08-06T01:29:43;16.20;99.90
64951;DHT22;51482;47.014;7.652;2023-08-06T01:32:12;16.20;99.90
64951;DHT22;51482;47.014;7.652;2023-08-06T01:34:40;16.20;99.90
64951;DHT22;51482;47.014;7.652;2023-08-06T01:37:07;16.20;99.90
64951;DHT22;51482;47.014;7.652;2023-08-06T01:39:35;16.30;99.90
64951;DHT22;51482;47.014;7.652;2023-08-06T01:42:01;16.20;99.90
64951;DHT22;51482;47.014;7.652;2023-08-06T01:44:26;16.20;99.90
64951;DHT22;51482;47.014;7.652;2023-08-06T01:46:52;16.20;99.90
64951;DHT22;51482;47.014;7.652;2023-08-06T01:49:17;15.90;99.90
64951;DHT22;51482;47.014;7.652;2023-08-06T01:51:43;16.00;99.90
64951;DHT22;51482;47.014;7.652;2023-08-06T01:54:09;16.00;99.90
64951;DHT22;51482;47.014;7.652;2023-08-06T01:56:34;16.50;99.90
64951;DHT22;51482;47.014;7.652;2023-08-06T01:59:00;16.00;99.90
64951;DHT22;51482;47.014;7.652;2023-08-06T02:01:25;16.00;99.90
64951;DHT22;51482;47.014;7.652;2023-08-06T02:03:51;16.00;99.90
64951;DHT22;51482;47.014;7.652;2023-08-06T02:06:16;16.00;99.90
64951;DHT22;51482;47.014;7.652;2023-08-06T02:08:42;15.90;99.90
64951;DHT22;51482;47.014;7.652;2023-08-06T02:11:07;15.80;99.90
64951;DHT22;51482;47.014;7.652;2023-08-06T02:13:33;15.90;99.90
64951;DHT22;51482;47.014;7.652;2023-08-06T02:15:58;16.20;99.90
64951;DHT22;51482;47.014;7.652;2023-08-06T02:18:24;15.80;99.90
64951;DHT22;51482;47.014;7.652;2023-08-06T02:20:56;15.80;99.90
64951;DHT22;51482;47.014;7.652;2023-08-06T02:23:23;15.50;99.90
64951;DHT22;51482;47.014;7.652;2023-08-06T02:25:48;15.80;99.90
64951;DHT22;51482;47.014;7.652;2023-08-06T02:28:14;15.80;99.90
64951;DHT22;51482;47.014;7.652;2023-08-06T02:30:39;15.80;99.90
64951;DHT22;51482;47.014;7.652;2023-08-06T02:33:05;15.90;99.90
64951;DHT22;51482;47.014;7.652;2023-08-06T02:35:30;15.80;99.90
64951;DHT22;51482;47.014;7.652;2023-08-06T02:37:56;15.80;99.90
64951;DHT22;51482;47.014;7.652;2023-08-06T02:40:21;15.80;99.90
64951;DHT22;51482;47.014;7.652;2023-08-06T02:42:47;15.70;99.90
64951;DHT22;51482;47.014;7.652;2023-08-06T02:45:12;15.70;99.90
64951;DHT22;51482;47.014;7.652;2023-08-06T02:47:38;15.70;99.90
64951;DHT22;51482;47.014;7.652;2023-08-06T02:50:03;15.70;99.90
64951;DHT22;51482;47.014;7.652;2023-08-06T02:52:29;15.70;99.90
64951;DHT22;51482;47.014;7.652;2023-08-06T02:54:55;15.70;99.90
64951;DHT22;51482;47.014;7.652;2023-08-06T02:57:20;15.70;99.90
64951;DHT22;51482;47.014;7.652;2023-08-06T02:59:46;15.70;99.90
64951;DHT22;51482;47.014;7.652;2023-08-06T03:02:11;15.70;99.90
64951;DHT22;51482;47.014;7.652;2023-08-06T03:04:37;15.70;99.90
64951;DHT22;51482;47.014;7.652;2023-08-06T03:07:02;15.70;99.90
64951;DHT22;51482;47.014;7.652;2023-08-06T03:09:28;15.70;99.90
64951;DHT22;51482;47.014;7.652;2023-08-06T03:11:53;15.70;99.90
64951;DHT22;51482;47.014;7.652;2023-08-06T03:14:19;15.70;99.90
64951;DHT22;51482;47.014;7.652;2023-08-06T03:16:44;15.60;99.90
64951;DHT22;51482;47.014;7.652;2023-08-06T03:19:10;15.60;99.90
64951;DHT22;51482;47.014;7.652;2023-08-06T03:21:35;15.70;99.90
64951;DHT22;51482;47.014;7.652;2023-08-06T03:24:00;15.60;99.90
64951;DHT22;51482;47.014;7.652;2023-08-06T03:26:26;14.90;99.90
64951;DHT22;51482;47.014;7.652;2023-08-06T03:28:51;15.50;99.90
64951;DHT22;51482;47.014;7.652;2023-08-06T03:31:17;15.10;99.90
64951;DHT22;51482;47.014;7.652;2023-08-06T03:33:42;15.40;99.90
64951;DHT22;51482;47.014;7.652;2023-08-06T03:36:08;15.30;99.90
64951;DHT22;51482;47.014;7.652;2023-08-06T03:38:34;15.30;99.90
64951;DHT22;51482;47.014;7.652;2023-08-06T03:40:59;15.20;99.90
64951;DHT22;51482;47.014;7.652;2023-08-06T03:43:25;15.20;99.90
64951;DHT22;51482;47.014;7.652;2023-08-06T03:45:50;15.40;99.90
64951;DHT22;51482;47.014;7.652;2023-08-06T03:48:16;15.10;99.90
64951;DHT22;51482;47.014;7.652;2023-08-06T03:50:41;15.10;99.90
64951;DHT22;51482;47.014;7.652;2023-08-06T03:53:07;15.10;99.90
64951;DHT22;51482;47.014;7.652;2023-08-06T03:55:32;15.20;99.90
64951;DHT22;51482;47.014;7.652;2023-08-06T03:57:58;14.80;99.90
64951;DHT22;51482;47.014;7.652;2023-08-06T04:00:23;15.10;99.90
64951;DHT22;51482;47.014;7.652;2023-08-06T04:02:49;15.10;99.90
64951;DHT22;51482;47.014;7.652;2023-08-06T04:05:15;15.40;99.90
64951;DHT22;51482;47.014;7.652;2023-08-06T04:07:41;15.10;99.90
64951;DHT22;51482;47.014;7.652;2023-08-06T04:10:06;15.10;99.90
64951;DHT22;51482;47.014;7.652;2023-08-06T04:12:32;15.10;99.90
64951;DHT22;51482;47.014;7.652;2023-08-06T04:15:02;15.10;99.90
64951;DHT22;51482;47.014;7.652;2023-08-06T04:17:29;15.10;99.90
64951;DHT22;51482;47.014;7.652;2023-08-06T04:19:55;15.00;99.90
64951;DHT22;51482;47.014;7.652;2023-08-06T04:22:23;15.00;99.90
64951;DHT22;51482;47.014;7.652;2023-08-06T04:24:49;15.80;99.90
64951;DHT22;51482;47.014;7.652;2023-08-06T04:27:15;14.90;99.90
64951;DHT22;51482;47.014;7.652;2023-08-06T04:29:41;14.90;99.90
64951;DHT22;51482;47.014;7.652;2023-08-06T04:32:09;14.90;99.90
64951;DHT22;51482;47.014;7.652;2023-08-06T04:34:35;14.90;99.90
64951;DHT22;51482;47.014;7.652;2023-08-06T04:37:02;14.80;99.90
64951;DHT22;51482;47.014;7.652;2023-08-06T04:39:27;14.80;99.90
64951;DHT22;51482;47.014;7.652;2023-08-06T04:41:53;14.80;99.90
64951;DHT22;51482;47.014;7.652;2023-08-06T04:44:18;14.80;99.90
64951;DHT22;51482;47.014;7.652;2023-08-06T04:46:44;14.80;99.90
64951;DHT22;51482;47.014;7.652;2023-08-06T04:49:09;14.70;99.90
64951;DHT22;51482;47.014;7.652;2023-08-06T04:51:35;14.80;99.90
64951;DHT22;51482;47.014;7.652;2023-08-06T04:54:01;14.10;99.90
64951;DHT22;51482;47.014;7.652;2023-08-06T04:56:26;14.40;99.90
64951;DHT22;51482;47.014;7.652;2023-08-06T04:58:52;14.10;99.90
64951;DHT22;51482;47.014;7.652;2023-08-06T05:01:18;13.90;99.90
64951;DHT22;51482;47.014;7.652;2023-08-06T05:03:44;13.60;99.90
64951;DHT22;51482;47.014;7.652;2023-08-06T05:06:09;13.40;99.90
64951;DHT22;51482;47.014;7.652;2023-08-06T05:08:35;13.30;99.90
64951;DHT22;51482;47.014;7.652;2023-08-06T05:11:01;13.40;99.90
64951;DHT22;51482;47.014;7.652;2023-08-06T05:13:27;13.40;99.90
64951;DHT22;51482;47.014;7.652;2023-08-06T05:15:55;13.70;99.90
64951;DHT22;51482;47.014;7.652;2023-08-06T05:18:21;13.30;99.90
64951;DHT22;51482;47.014;7.652;2023-08-06T05:20:47;13.00;99.90
64951;DHT22;51482;47.014;7.652;2023-08-06T05:23:12;13.20;99.90
64951;DHT22;51482;47.014;7.652;2023-08-06T05:25:38;13.20;99.90
64951;DHT22;51482;47.014;7.652;2023-08-06T05:28:04;13.20;99.90
64951;DHT22;51482;47.014;7.652;2023-08-06T05:30:29;13.20;99.90
64951;DHT22;51482;47.014;7.652;2023-08-06T05:32:55;13.70;99.90
64951;DHT22;51482;47.014;7.652;2023-08-06T05:35:21;13.50;99.90
64951;DHT22;51482;47.014;7.652;2023-08-06T05:37:47;13.40;99.90
64951;DHT22;51482;47.014;7.652;2023-08-06T05:40:13;13.50;99.90
64951;DHT22;51482;47.014;7.652;2023-08-06T05:42:39;13.50;99.90
64951;DHT22;51482;47.014;7.652;2023-08-06T05:45:05;13.60;99.90
64951;DHT22;51482;47.014;7.652;2023-08-06T05:47:31;13.70;99.90
64951;DHT22;51482;47.014;7.652;2023-08-06T05:49:56;13.60;99.90
64951;DHT22;51482;47.014;7.652;2023-08-06T05:52:22;13.80;99.90
64951;DHT22;51482;47.014;7.652;2023-08-06T05:54:47;13.50;99.90
64951;DHT22;51482;47.014;7.652;2023-08-06T05:57:13;13.50;99.90
64951;DHT22;51482;47.014;7.652;2023-08-06T05:59:40;13.50;99.90
64951;DHT22;51482;47.014;7.652;2023-08-06T06:02:06;13.50;99.90
64951;DHT22;51482;47.014;7.652;2023-08-06T06:04:31;13.50;99.90
64951;DHT22;51482;47.014;7.652;2023-08-06T06:06:57;13.50;99.90
64951;DHT22;51482;47.014;7.652;2023-08-06T06:09:22;13.60;99.90
64951;DHT22;51482;47.014;7.652;2023-08-06T06:11:48;13.60;99.90
64951;DHT22;51482;47.014;7.652;2023-08-06T06:14:16;13.70;99.90
64951;DHT22;51482;47.014;7.652;2023-08-06T06:16:41;13.90;99.90
64951;DHT22;51482;47.014;7.652;2023-08-06T06:19:07;14.40;99.90
64951;DHT22;51482;47.014;7.652;2023-08-06T06:21:32;14.00;99.90
64951;DHT22;51482;47.014;7.652;2023-08-06T06:23:58;14.10;99.90
64951;DHT22;51482;47.014;7.652;2023-08-06T06:26:23;13.90;99.90
64951;DHT22;51482;47.014;7.652;2023-08-06T06:28:49;13.40;99.90
64951;DHT22;51482;47.014;7.652;2023-08-06T06:31:15;13.90;99.90
64951;DHT22;51482;47.014;7.652;2023-08-06T06:33:40;13.90;99.90
64951;DHT22;51482;47.014;7.652;2023-08-06T06:36:06;14.00;99.90
64951;DHT22;51482;47.014;7.652;2023-08-06T06:38:33;13.90;99.90
64951;DHT22;51482;47.014;7.652;2023-08-06T06:40:59;13.90;99.90
64951;DHT22;51482;47.014;7.652;2023-08-06T06:43:25;13.90;99.90
64951;DHT22;51482;47.014;7.652;2023-08-06T06:45:56;13.90;99.90
64951;DHT22;51482;47.014;7.652;2023-08-06T06:48:23;13.90;99.90
64951;DHT22;51482;47.014;7.652;2023-08-06T06:50:48;14.00;99.90
64951;DHT22;51482;47.014;7.652;2023-08-06T06:53:14;14.00;99.90
64951;DHT22;51482;47.014;7.652;2023-08-06T06:55:40;14.00;99.90
64951;DHT22;51482;47.014;7.652;2023-08-06T06:58:05;14.10;99.90
64951;DHT22;51482;47.014;7.652;2023-08-06T07:00:31;14.10;99.90
64951;DHT22;51482;47.014;7.652;2023-08-06T07:02:56;14.10;99.90
64951;DHT22;51482;47.014;7.652;2023-08-06T07:05:22;14.10;99.90
64951;DHT22;51482;47.014;7.652;2023-08-06T07:07:47;14.30;99.90
64951;DHT22;51482;47.014;7.652;2023-08-06T07:10:13;14.30;99.90
64951;DHT22;51482;47.014;7.652;2023-08-06T07:12:38;14.20;99.90
64951;DHT22;51482;47.014;7.652;2023-08-06T07:15:06;13.80;99.90
64951;DHT22;51482;47.014;7.652;2023-08-06T07:17:31;14.00;99.90
64951;DHT22;51482;47.014;7.652;2023-08-06T07:19:57;14.10;99.90
64951;DHT22;51482;47.014;7.652;2023-08-06T07:22:22;14.10;99.90
64951;DHT22;51482;47.014;7.652;2023-08-06T07:24:48;14.10;99.90
64951;DHT22;51482;47.014;7.652;2023-08-06T07:27:14;14.20;99.90
64951;DHT22;51482;47.014;7.652;2023-08-06T07:29:39;14.30;99.90
64951;DHT22;51482;47.014;7.652;2023-08-06T07:32:06;14.30;99.90
64951;DHT22;51482;47.014;7.652;2023-08-06T07:34:32;14.40;99.90
64951;DHT22;51482;47.014;7.652;2023-08-06T07:36:58;14.20;99.90
64951;DHT22;51482;47.014;7.652;2023-08-06T07:39:24;14.00;99.90
64951;DHT22;51482;47.014;7.652;2023-08-06T07:41:49;14.00;99.90
64951;DHT22;51482;47.014;7.652;2023-08-06T07:44:15;13.90;99.90
64951;DHT22;51482;47.014;7.652;2023-08-06T07:46:40;14.00;99.90
64951;DHT22;51482;47.014;7.652;2023-08-06T07:49:06;13.90;99.90
64951;DHT22;51482;47.014;7.652;2023-08-06T07:51:44;14.00;99.90
64951;DHT22;51482;47.014;7.652;2023-08-06T07:54:10;14.00;99.90
64951;DHT22;51482;47.014;7.652;2023-08-06T07:56:35;14.00;99.90
64951;DHT22;51482;47.014;7.652;2023-08-06T07:59:08;13.90;99.90
64951;DHT22;51482;47.014;7.652;2023-08-06T08:01:34;14.00;99.90
64951;DHT22;51482;47.014;7.652;2023-08-06T08:04:09;14.70;99.90
64951;DHT22;51482;47.014;7.652;2023-08-06T08:13:03;14.40;99.90
64951;DHT22;51482;47.014;7.652;2023-08-06T08:15:32;14.50;99.90
64951;DHT22;51482;47.014;7.652;2023-08-06T08:18:04;14.60;99.90
64951;DHT22;51482;47.014;7.652;2023-08-06T08:23:41;14.80;99.90
64951;DHT22;51482;47.014;7.652;2023-08-06T08:26:26;14.70;99.90
64951;DHT22;51482;47.014;7.652;2023-08-06T08:29:30;14.10;99.90
64951;DHT22;51482;47.014;7.652;2023-08-06T08:35:20;14.30;99.90
64951;DHT22;51482;47.014;7.652;2023-08-06T08:38:04;14.60;99.90
64951;DHT22;51482;47.014;7.652;2023-08-06T08:40:33;14.70;99.90
64951;DHT22;51482;47.014;7.652;2023-08-06T08:43:02;14.90;99.90
64951;DHT22;51482;47.014;7.652;2023-08-06T08:45:44;15.10;99.90
64951;DHT22;51482;47.014;7.652;2023-08-06T08:48:29;15.20;99.90
64951;DHT22;51482;47.014;7.652;2023-08-06T08:51:04;15.20;99.90
64951;DHT22;51482;47.014;7.652;2023-08-06T08:53:31;15.40;99.90
64951;DHT22;51482;47.014;7.652;2023-08-06T08:55:57;15.70;99.90
64951;DHT22;51482;47.014;7.652;2023-08-06T08:58:26;15.10;99.90
64951;DHT22;51482;47.014;7.652;2023-08-06T09:00:52;15.30;99.90
64951;DHT22;51482;47.014;7.652;2023-08-06T09:03:19;15.50;99.90
64951;DHT22;51482;47.014;7.652;2023-08-06T09:05:49;15.80;99.90
64951;DHT22;51482;47.014;7.652;2023-08-06T09:08:22;16.30;99.90
64951;DHT22;51482;47.014;7.652;2023-08-06T09:10:53;16.40;99.90
64951;DHT22;51482;47.014;7.652;2023-08-06T09:13:28;16.20;99.90
64951;DHT22;51482;47.014;7.652;2023-08-06T09:15:54;16.40;99.90
64951;DHT22;51482;47.014;7.652;2023-08-06T09:18:38;16.80;99.90
64951;DHT22;51482;47.014;7.652;2023-08-06T09:21:14;16.90;99.90
64951;DHT22;51482;47.014;7.652;2023-08-06T09:23:40;16.70;99.90
64951;DHT22;51482;47.014;7.652;2023-08-06T09:26:06;16.50;99.90
64951;DHT22;51482;47.014;7.652;2023-08-06T09:28:53;16.40;99.90
64951;DHT22;51482;47.014;7.652;2023-08-06T09:31:18;16.40;99.90
64951;DHT22;51482;47.014;7.652;2023-08-06T09:33:53;16.40;99.90
64951;DHT22;51482;47.014;7.652;2023-08-06T09:36:24;16.40;99.90
64951;DHT22;51482;47.014;7.652;2023-08-06T09:38:53;16.20;99.90
64951;DHT22;51482;47.014;7.652;2023-08-06T09:41:27;16.60;99.90
64951;DHT22;51482;47.014;7.652;2023-08-06T09:43:56;16.00;99.90
64951;DHT22;51482;47.014;7.652;2023-08-06T09:46:21;15.90;99.90
64951;DHT22;51482;47.014;7.652;2023-08-06T10:00:11;16.40;99.90
64951;DHT22;51482;47.014;7.652;2023-08-06T10:02:46;16.10;99.90
64951;DHT22;51482;47.014;7.652;2023-08-06T10:05:27;16.00;99.90
64951;DHT22;51482;47.014;7.652;2023-08-06T10:07:53;15.90;99.90
64951;DHT22;51482;47.014;7.652;2023-08-06T10:10:21;16.20;99.90
64951;DHT22;51482;47.014;7.652;2023-08-06T10:12:49;15.80;99.90
64951;DHT22;51482;47.014;7.652;2023-08-06T10:15:17;15.70;99.90
64951;DHT22;51482;47.014;7.652;2023-08-06T10:17:47;15.80;99.90
64951;DHT22;51482;47.014;7.652;2023-08-06T10:20:15;15.70;99.90
64951;DHT22;51482;47.014;7.652;2023-08-06T10:22:44;15.70;99.90
64951;DHT22;51482;47.014;7.652;2023-08-06T10:25:10;15.60;99.90
64951;DHT22;51482;47.014;7.652;2023-08-06T10:27:53;14.90;99.90
64951;DHT22;51482;47.014;7.652;2023-08-06T10:30:26;15.00;99.90
64951;DHT22;51482;47.014;7.652;2023-08-06T10:32:59;16.20;99.90
64951;DHT22;51482;47.014;7.652;2023-08-06T10:35:34;16.30;99.90
64951;DHT22;51482;47.014;7.652;2023-08-06T10:40:35;16.70;99.90
64951;DHT22;51482;47.014;7.652;2023-08-06T10:43:02;16.80;99.90
64951;DHT22;51482;47.014;7.652;2023-08-06T10:45:28;16.20;99.90
64951;DHT22;51482;47.014;7.652;2023-08-06T10:47:55;16.30;99.90
64951;DHT22;51482;47.014;7.652;2023-08-06T10:50:22;15.90;99.90
64951;DHT22;51482;47.014;7.652;2023-08-06T10:52:48;16.90;99.90
64951;DHT22;51482;47.014;7.652;2023-08-06T10:55:14;16.90;99.90
64951;DHT22;51482;47.014;7.652;2023-08-06T10:57:47;17.50;99.90
64951;DHT22;51482;47.014;7.652;2023-08-06T11:00:13;18.30;99.90
64951;DHT22;51482;47.014;7.652;2023-08-06T11:02:39;18.80;99.90
64951;DHT22;51482;47.014;7.652;2023-08-06T11:05:09;18.60;99.90
64951;DHT22;51482;47.014;7.652;2023-08-06T11:07:36;18.30;99.90
64951;DHT22;51482;47.014;7.652;2023-08-06T11:12:29;17.80;99.90
64951;DHT22;51482;47.014;7.652;2023-08-06T11:14:55;17.90;99.90
64951;DHT22;51482;47.014;7.652;2023-08-06T11:17:21;18.00;99.90
64951;DHT22;51482;47.014;7.652;2023-08-06T11:19:47;18.10;99.90
64951;DHT22;51482;47.014;7.652;2023-08-06T11:22:14;18.50;99.90
64951;DHT22;51482;47.014;7.652;2023-08-06T11:24:39;18.40;99.90
64951;DHT22;51482;47.014;7.652;2023-08-06T11:27:15;17.70;99.90
64951;DHT22;51482;47.014;7.652;2023-08-06T11:29:42;17.70;99.90
64951;DHT22;51482;47.014;7.652;2023-08-06T11:32:09;17.60;99.90
64951;DHT22;51482;47.014;7.652;2023-08-06T11:34:35;17.70;99.90
64951;DHT22;51482;47.014;7.652;2023-08-06T11:37:03;18.20;99.90
64951;DHT22;51482;47.014;7.652;2023-08-06T11:39:32;18.50;99.90
64951;DHT22;51482;47.014;7.652;2023-08-06T11:41:57;19.00;99.90
64951;DHT22;51482;47.014;7.652;2023-08-06T11:44:25;19.80;99.90
64951;DHT22;51482;47.014;7.652;2023-08-06T11:46:55;20.00;99.90
64951;DHT22;51482;47.014;7.652;2023-08-06T11:49:45;20.70;99.90
64951;DHT22;51482;47.014;7.652;2023-08-06T11:52:18;20.90;99.90
64951;DHT22;51482;47.014;7.652;2023-08-06T11:55:06;20.10;99.90
64951;DHT22;51482;47.014;7.652;2023-08-06T11:57:34;20.80;99.90
64951;DHT22;51482;47.014;7.652;2023-08-06T12:00:07;21.10;99.90
64951;DHT22;51482;47.014;7.652;2023-08-06T12:02:34;20.70;99.90
64951;DHT22;51482;47.014;7.652;2023-08-06T12:05:10;21.00;99.90
64951;DHT22;51482;47.014;7.652;2023-08-06T12:07:38;21.50;99.90
64951;DHT22;51482;47.014;7.652;2023-08-06T12:10:05;21.30;99.90
64951;DHT22;51482;47.014;7.652;2023-08-06T12:12:30;20.60;99.90
64951;DHT22;51482;47.014;7.652;2023-08-06T12:14:56;20.50;99.90
64951;DHT22;51482;47.014;7.652;2023-08-06T12:17:23;20.40;99.90
64951;DHT22;51482;47.014;7.652;2023-08-06T12:19:49;19.80;99.90
64951;DHT22;51482;47.014;7.652;2023-08-06T12:22:15;19.80;99.90
64951;DHT22;51482;47.014;7.652;2023-08-06T12:24:42;19.00;99.90
64951;DHT22;51482;47.014;7.652;2023-08-06T12:27:08;19.70;99.90
64951;DHT22;51482;47.014;7.652;2023-08-06T12:29:34;19.70;99.90
64951;DHT22;51482;47.014;7.652;2023-08-06T12:32:00;21.20;99.90
64951;DHT22;51482;47.014;7.652;2023-08-06T12:34:25;21.00;99.90
64951;DHT22;51482;47.014;7.652;2023-08-06T12:36:52;21.30;99.90
64951;DHT22;51482;47.014;7.652;2023-08-06T12:39:18;21.40;99.90
64951;DHT22;51482;47.014;7.652;2023-08-06T12:41:43;20.80;99.90
64951;DHT22;51482;47.014;7.652;2023-08-06T12:44:11;20.90;99.90
64951;DHT22;51482;47.014;7.652;2023-08-06T12:46:37;20.90;99.90
64951;DHT22;51482;47.014;7.652;2023-08-06T12:49:02;20.90;99.90
64951;DHT22;51482;47.014;7.652;2023-08-06T12:51:28;20.20;99.90
64951;DHT22;51482;47.014;7.652;2023-08-06T12:53:54;20.20;99.90
64951;DHT22;51482;47.014;7.652;2023-08-06T12:56:19;20.30;99.90
64951;DHT22;51482;47.014;7.652;2023-08-06T12:58:45;19.60;99.90
64951;DHT22;51482;47.014;7.652;2023-08-06T13:01:10;18.80;99.90
64951;DHT22;51482;47.014;7.652;2023-08-06T13:03:36;19.20;99.90
64951;DHT22;51482;47.014;7.652;2023-08-06T13:06:01;18.50;99.90
64951;DHT22;51482;47.014;7.652;2023-08-06T13:08:27;18.20;99.90
64951;DHT22;51482;47.014;7.652;2023-08-06T13:10:52;18.10;99.90
64951;DHT22;51482;47.014;7.652;2023-08-06T13:13:18;17.80;99.90
64951;DHT22;51482;47.014;7.652;2023-08-06T13:15:43;17.40;99.90
64951;DHT22;51482;47.014;7.652;2023-08-06T13:18:09;17.60;99.90
64951;DHT22;51482;47.014;7.652;2023-08-06T13:20:37;17.10;99.90
64951;DHT22;51482;47.014;7.652;2023-08-06T13:23:03;18.20;99.90
64951;DHT22;51482;47.014;7.652;2023-08-06T13:25:28;18.30;99.90
64951;DHT22;51482;47.014;7.652;2023-08-06T13:27:54;19.40;99.90
64951;DHT22;51482;47.014;7.652;2023-08-06T13:30:20;19.70;99.90
64951;DHT22;51482;47.014;7.652;2023-08-06T13:32:46;20.60;99.90
64951;DHT22;51482;47.014;7.652;2023-08-06T13:35:11;20.10;99.90
64951;DHT22;51482;47.014;7.652;2023-08-06T13:37:37;20.30;99.90
64951;DHT22;51482;47.014;7.652;2023-08-06T13:40:03;20.70;99.90
64951;DHT22;51482;47.014;7.652;2023-08-06T13:42:29;20.80;99.90
64951;DHT22;51482;47.014;7.652;2023-08-06T13:44:57;21.00;99.90
64951;DHT22;51482;47.014;7.652;2023-08-06T13:47:28;20.60;99.90
64951;DHT22;51482;47.014;7.652;2023-08-06T13:49:54;20.40;99.90
64951;DHT22;51482;47.014;7.652;2023-08-06T13:52:20;20.00;99.90
64951;DHT22;51482;47.014;7.652;2023-08-06T13:54:46;19.40;99.90
64951;DHT22;51482;47.014;7.652;2023-08-06T13:57:11;19.10;99.90
64951;DHT22;51482;47.014;7.652;2023-08-06T13:59:37;19.40;99.90
64951;DHT22;51482;47.014;7.652;2023-08-06T14:02:03;19.10;99.90
64951;DHT22;51482;47.014;7.652;2023-08-06T14:04:29;18.80;99.90
64951;DHT22;51482;47.014;7.652;2023-08-06T14:06:54;18.40;99.90
64951;DHT22;51482;47.014;7.652;2023-08-06T14:09:20;18.70;99.90
64951;DHT22;51482;47.014;7.652;2023-08-06T14:11:46;19.00;99.90
64951;DHT22;51482;47.014;7.652;2023-08-06T14:14:11;18.80;99.90
64951;DHT22;51482;47.014;7.652;2023-08-06T14:16:37;18.30;99.90
64951;DHT22;51482;47.014;7.652;2023-08-06T14:19:03;18.30;99.90
64951;DHT22;51482;47.014;7.652;2023-08-06T14:21:29;18.40;99.90
64951;DHT22;51482;47.014;7.652;2023-08-06T14:23:55;18.50;99.90
64951;DHT22;51482;47.014;7.652;2023-08-06T14:26:20;19.00;99.90
64951;DHT22;51482;47.014;7.652;2023-08-06T14:28:46;19.70;99.90
64951;DHT22;51482;47.014;7.652;2023-08-06T14:31:12;19.90;99.90
64951;DHT22;51482;47.014;7.652;2023-08-06T14:33:37;20.30;99.90
64951;DHT22;51482;47.014;7.652;2023-08-06T14:36:03;20.20;99.90
64951;DHT22;51482;47.014;7.652;2023-08-06T14:38:29;19.60;99.90
64951;DHT22;51482;47.014;7.652;2023-08-06T14:40:54;19.30;99.90
64951;DHT22;51482;47.014;7.652;2023-08-06T14:43:20;18.90;99.90
64951;DHT22;51482;47.014;7.652;2023-08-06T14:45:46;18.10;99.90
64951;DHT22;51482;47.014;7.652;2023-08-06T14:48:11;17.80;99.90
64951;DHT22;51482;47.014;7.652;2023-08-06T14:50:37;17.40;99.90
64951;DHT22;51482;47.014;7.652;2023-08-06T14:53:04;17.10;99.90
64951;DHT22;51482;47.014;7.652;2023-08-06T14:55:31;16.70;99.90
64951;DHT22;51482;47.014;7.652;2023-08-06T14:57:57;16.70;99.90
64951;DHT22;51482;47.014;7.652;2023-08-06T15:00:23;17.30;99.90
64951;DHT22;51482;47.014;7.652;2023-08-06T15:02:48;16.50;99.90
64951;DHT22;51482;47.014;7.652;2023-08-06T15:05:14;16.80;99.90
64951;DHT22;51482;47.014;7.652;2023-08-06T15:07:40;17.00;99.90
64951;DHT22;51482;47.014;7.652;2023-08-06T15:10:06;17.60;99.90
64951;DHT22;51482;47.014;7.652;2023-08-06T15:12:32;18.40;99.90
64951;DHT22;51482;47.014;7.652;2023-08-06T15:15:00;18.50;99.90
64951;DHT22;51482;47.014;7.652;2023-08-06T15:17:27;18.80;99.90
64951;DHT22;51482;47.014;7.652;2023-08-06T15:19:56;18.70;99.90
64951;DHT22;51482;47.014;7.652;2023-08-06T15:22:23;19.20;99.90
64951;DHT22;51482;47.014;7.652;2023-08-06T15:24:49;19.30;99.90
64951;DHT22;51482;47.014;7.652;2023-08-06T15:27:15;18.50;99.90
64951;DHT22;51482;47.014;7.652;2023-08-06T15:29:41;18.10;99.90
64951;DHT22;51482;47.014;7.652;2023-08-06T15:32:07;18.20;99.90
64951;DHT22;51482;47.014;7.652;2023-08-06T15:34:33;18.40;99.90
64951;DHT22;51482;47.014;7.652;2023-08-06T15:36:59;18.30;99.90
64951;DHT22;51482;47.014;7.652;2023-08-06T15:39:24;18.30;99.90
64951;DHT22;51482;47.014;7.652;2023-08-06T15:41:50;18.10;99.90
64951;DHT22;51482;47.014;7.652;2023-08-06T15:44:15;18.30;99.90
64951;DHT22;51482;47.014;7.652;2023-08-06T15:46:41;18.30;99.90
64951;DHT22;51482;47.014;7.652;2023-08-06T15:49:06;17.80;99.90
64951;DHT22;51482;47.014;7.652;2023-08-06T15:51:32;17.80;99.90
64951;DHT22;51482;47.014;7.652;2023-08-06T15:53:57;17.60;99.90
64951;DHT22;51482;47.014;7.652;2023-08-06T15:56:23;17.40;99.90
64951;DHT22;51482;47.014;7.652;2023-08-06T15:58:48;17.60;99.90